This is the latest recevied weather packets stored in our database for station/object I5EKX-13. If no packets are shown the sender has not sent any weather packets the latest 10 day(s).
| Time | Temp. | Humidity | Pressure | Rain* | Wind** | Luminosity | Snow |
|---|---|---|---|---|---|---|---|
| 1777631628 | 23.33° C | 33% | 1019.4 hPa | - | - | - | - |
| 1777630424 | 22.22° C | 35% | 1019.6 hPa | - | - | - | - |
| 1777629220 | 22.78° C | 35% | 1019.7 hPa | - | - | - | - |
| 1777628016 | 20° C | 37% | 1019.8 hPa | - | - | - | - |
| 1777626812 | 20.56° C | 37% | 1019.8 hPa | - | - | - | - |
| 1777625609 | 19.44° C | 38% | 1020 hPa | - | - | - | - |
| 1777624405 | 20.56° C | 37% | 1019.6 hPa | - | - | - | - |
| 1777623202 | 18.33° C | 39% | 1019.6 hPa | - | - | - | - |
| 1777621998 | 17.78° C | 39% | 1019.5 hPa | - | - | - | - |
| 1777620793 | 17.78° C | 41% | 1019.3 hPa | - | - | - | - |
| 1777619588 | 16.11° C | 44% | 1019.2 hPa | - | - | - | - |
| 1777618384 | 15.56° C | 45% | 1018.9 hPa | - | - | - | - |
| 1777617180 | 15° C | 46% | 1019.1 hPa | - | - | - | - |
| 1777615975 | 14.44° C | 46% | 1018.8 hPa | - | - | - | - |
| 1777614770 | 13.89° C | 46% | 1018.9 hPa | - | - | - | - |
| 1777612361 | 12.78° C | 48% | 1018.5 hPa | - | - | - | - |
| 1777611158 | 12.78° C | 47% | 1018.3 hPa | - | - | - | - |
| 1777608750 | 12.78° C | 46% | 1018 hPa | - | - | - | - |
| 1777607546 | 12.78° C | 45% | 1018.1 hPa | - | - | - | - |
| 1777606342 | 12.78° C | 44% | 1017.8 hPa | - | - | - | - |
| 1777605138 | 12.78° C | 42% | 1017.7 hPa | - | - | - | - |
| 1777603935 | 13.33° C | 40% | 1017.4 hPa | - | - | - | - |
| 1777602731 | 13.33° C | 39% | 1017.1 hPa | - | - | - | - |
| 1777601527 | 13.89° C | 36% | 1016.7 hPa | - | - | - | - |
| 1777600323 | 13.33° C | 39% | 1016.4 hPa | - | - | - | - |
* Rain since midnight (hover to see other rain measurements)
** Current wind speed in m/s (hover to see current wind gust speed)